createdAt,value
2022-08-12T00:01:12.917Z,24.02
2022-08-12T00:03:59.232Z,24.13
2022-08-12T00:06:47.669Z,24.11
2022-08-12T00:09:33.684Z,24.06
2022-08-12T00:12:20.223Z,24.18
2022-08-12T00:15:08.045Z,24.32
2022-08-12T00:17:54.121Z,24.33
2022-08-12T00:20:40.240Z,23.95
2022-08-12T00:23:26.259Z,23.84
2022-08-12T00:26:23.041Z,23.81
2022-08-12T00:29:14.509Z,23.75
2022-08-12T00:32:01.701Z,23.87
2022-08-12T00:34:51.801Z,23.86
2022-08-12T00:37:39.491Z,23.76
2022-08-12T00:40:28.143Z,23.78
2022-08-12T00:42:57.365Z,23.80
2022-08-12T00:45:25.282Z,23.85
2022-08-12T00:47:53.984Z,23.81
2022-08-12T00:50:23.540Z,23.72
2022-08-12T00:52:53.030Z,23.77
2022-08-12T00:55:21.485Z,23.50
2022-08-12T00:57:52.046Z,23.57
2022-08-12T01:00:23.415Z,23.77
2022-08-12T01:02:54.167Z,23.84
2022-08-12T01:05:42.185Z,23.59
2022-08-12T01:08:28.595Z,23.55
2022-08-12T01:11:16.177Z,23.43
2022-08-12T01:13:53.235Z,23.43
2022-08-12T01:16:24.979Z,23.46
2022-08-12T01:18:55.762Z,23.26
2022-08-12T01:21:28.871Z,23.29
2022-08-12T01:24:29.812Z,23.28
2022-08-12T01:27:00.059Z,23.18
2022-08-12T01:29:33.264Z,23.06
2022-08-12T01:32:06.280Z,23.24
2022-08-12T01:34:37.509Z,23.21
2022-08-12T01:37:07.894Z,23.32
2022-08-12T01:40:33.540Z,23.20
2022-08-12T01:42:35.270Z,23.08
2022-08-12T01:45:03.570Z,23.20
2022-08-12T01:47:41.163Z,23.20
2022-08-12T01:50:36.930Z,23.05
2022-08-12T01:53:11.335Z,23.11
2022-08-12T01:55:41.846Z,22.80
2022-08-12T01:58:12.489Z,22.99
2022-08-12T02:00:55.410Z,22.52
2022-08-12T02:04:06.372Z,22.54
2022-08-12T02:07:42.564Z,22.56
2022-08-12T02:10:50.353Z,22.61
2022-08-12T02:13:48.278Z,22.59
2022-08-12T02:16:40.523Z,22.68
2022-08-12T02:19:32.198Z,22.78
2022-08-12T02:22:07.279Z,22.76
2022-08-12T02:24:38.189Z,22.77
2022-08-12T02:27:08.389Z,22.90
2022-08-12T02:29:40.785Z,22.91
2022-08-12T02:32:09.687Z,22.80
2022-08-12T02:34:38.359Z,22.67
2022-08-12T02:37:09.189Z,22.57
2022-08-12T02:39:41.211Z,22.38
2022-08-12T02:42:13.624Z,22.40
2022-08-12T02:44:43.193Z,22.62
2022-08-12T02:47:58.779Z,22.42
2022-08-12T02:50:04.185Z,22.43
2022-08-12T02:52:33.265Z,22.60
2022-08-12T02:55:34.656Z,22.49
2022-08-12T02:58:12.429Z,22.38
2022-08-12T03:00:44.453Z,22.53
2022-08-12T03:03:15.031Z,22.58
2022-08-12T03:05:49.575Z,22.51
2022-08-12T03:08:31.793Z,22.50
2022-08-12T03:11:11.782Z,22.39
2022-08-12T03:13:46.530Z,22.41
2022-08-12T03:16:14.865Z,22.43
2022-08-12T03:18:46.421Z,22.58
2022-08-12T03:21:17.298Z,22.41
2022-08-12T03:24:06.876Z,22.29
2022-08-12T03:26:36.714Z,22.24
2022-08-12T03:29:07.533Z,22.27
2022-08-12T03:31:34.933Z,22.50
2022-08-12T03:34:07.646Z,22.36
2022-08-12T03:36:37.525Z,22.25
2022-08-12T03:39:15.500Z,22.20
2022-08-12T03:41:55.203Z,22.46
2022-08-12T03:44:51.212Z,22.41
2022-08-12T03:48:02.702Z,22.58
2022-08-12T03:50:49.977Z,22.66
2022-08-12T03:53:48.003Z,22.37
2022-08-12T03:56:34.660Z,22.23
2022-08-12T03:59:23.008Z,22.15
2022-08-12T04:01:58.219Z,22.08
2022-08-12T04:04:28.638Z,22.10
2022-08-12T04:06:58.149Z,22.17
2022-08-12T04:09:26.009Z,22.26
2022-08-12T04:12:12.248Z,22.06
2022-08-12T04:14:40.572Z,21.99
2022-08-12T04:17:08.516Z,21.97
2022-08-12T04:19:37.189Z,22.05
2022-08-12T04:22:05.477Z,22.20
2022-08-12T04:24:35.381Z,22.20
2022-08-12T04:27:05.737Z,22.32
2022-08-12T04:30:30.290Z,22.38
2022-08-12T04:32:21.948Z,22.67
2022-08-12T04:34:50.480Z,22.76
2022-08-12T04:37:17.870Z,22.86
2022-08-12T04:39:46.350Z,23.03
2022-08-12T04:42:13.929Z,23.10
2022-08-12T04:44:42.225Z,23.15
2022-08-12T04:47:19.783Z,23.09
2022-08-12T04:49:48.276Z,23.09
2022-08-12T04:52:15.703Z,23.05
2022-08-12T04:54:44.144Z,23.29
2022-08-12T04:57:11.509Z,23.37
2022-08-12T04:59:47.532Z,23.49
2022-08-12T05:02:22.416Z,23.53
2022-08-12T05:04:52.229Z,23.95
2022-08-12T05:07:20.764Z,23.60
2022-08-12T05:10:00.824Z,23.79
2022-08-12T05:12:40.194Z,24.00
2022-08-12T05:15:18.896Z,23.50
2022-08-12T05:17:48.387Z,23.50
2022-08-12T05:20:15.970Z,23.42
2022-08-12T05:22:45.455Z,23.32
2022-08-12T05:25:15.887Z,23.20
2022-08-12T05:27:58.845Z,23.42
2022-08-12T05:30:33.464Z,23.53
2022-08-12T05:33:06.166Z,23.42
2022-08-12T05:35:43.162Z,23.61
2022-08-12T05:38:35.004Z,23.66
2022-08-12T05:41:05.009Z,23.61
2022-08-12T05:43:34.468Z,23.90
2022-08-12T05:46:01.783Z,23.81
2022-08-12T05:48:30.832Z,24.20
2022-08-12T05:50:58.154Z,24.40
2022-08-12T05:53:25.469Z,24.07
2022-08-12T05:55:54.287Z,23.94
2022-08-12T05:58:21.628Z,24.27
2022-08-12T06:00:48.975Z,24.17
2022-08-12T06:03:19.338Z,24.37
2022-08-12T06:05:54.838Z,24.46
2022-08-12T06:08:24.866Z,24.49
2022-08-12T06:10:52.468Z,24.71
2022-08-12T06:13:25.658Z,24.84
2022-08-12T06:15:56.905Z,24.95
2022-08-12T06:18:27.860Z,25.02
2022-08-12T06:20:59.181Z,25.02
2022-08-12T06:23:30.133Z,25.65
2022-08-12T06:25:58.273Z,25.68
2022-08-12T06:28:26.305Z,25.55
2022-08-12T06:33:55.813Z,25.88
2022-08-12T06:36:29.856Z,25.98
2022-08-12T06:38:59.975Z,26.01
2022-08-12T06:42:22.672Z,26.07
2022-08-12T06:44:33.129Z,26.54
2022-08-12T06:47:00.699Z,26.51
2022-08-12T06:49:30.238Z,26.47
2022-08-12T06:51:57.467Z,26.82
2022-08-12T06:54:30.923Z,26.63
2022-08-12T06:57:04.763Z,27.09
2022-08-12T06:59:35.576Z,26.83
2022-08-12T07:02:02.916Z,26.97
2022-08-12T07:04:38.793Z,27.02
2022-08-12T07:07:10.331Z,27.38
2022-08-12T07:10:04.804Z,27.69
2022-08-12T07:12:28.218Z,27.81
2022-08-12T07:14:57.618Z,27.69
2022-08-12T07:17:25.835Z,27.90
2022-08-12T07:19:55.515Z,27.89
2022-08-12T07:22:25.359Z,27.84
2022-08-12T07:25:14.037Z,28.00
2022-08-12T07:27:42.834Z,28.41
2022-08-12T07:30:10.988Z,28.31
2022-08-12T07:32:38.290Z,28.30
2022-08-12T07:35:08.333Z,28.17
2022-08-12T07:37:42.311Z,28.29
2022-08-12T07:40:12.088Z,28.70
2022-08-12T07:42:44.129Z,28.82
2022-08-12T07:45:14.932Z,28.68
2022-08-12T07:47:45.572Z,28.73
2022-08-12T07:50:16.917Z,29.08
2022-08-12T07:52:48.374Z,28.84
2022-08-12T07:55:17.452Z,28.75
2022-08-12T07:57:57.988Z,28.78
2022-08-12T08:00:34.287Z,29.19
2022-08-12T08:03:02.323Z,29.35
2022-08-12T08:05:37.474Z,29.01
2022-08-12T08:08:15.838Z,29.17
2022-08-12T08:10:43.975Z,29.48
2022-08-12T08:13:12.616Z,29.55
2022-08-12T08:18:28.898Z,29.67
2022-08-12T08:20:57.103Z,29.86
2022-08-12T08:23:46.353Z,29.76
2022-08-12T08:26:15.574Z,29.86
2022-08-12T08:28:44.034Z,29.83
2022-08-12T08:31:13.432Z,29.68
2022-08-12T08:34:04.282Z,29.88
2022-08-12T08:36:29.304Z,30.14
2022-08-12T08:38:58.336Z,29.79
2022-08-12T08:42:17.301Z,29.53
2022-08-12T08:44:38.224Z,29.76
2022-08-12T08:47:09.951Z,30.36
2022-08-12T08:49:38.491Z,30.18
2022-08-12T08:52:11.455Z,30.07
2022-08-12T08:54:40.554Z,30.20
2022-08-12T08:57:08.588Z,30.28
2022-08-12T08:59:35.931Z,30.41
2022-08-12T09:02:03.310Z,30.70
2022-08-12T09:05:12.054Z,31.15
2022-08-12T09:10:15.475Z,31.24
2022-08-12T09:13:22.946Z,31.71
2022-08-12T09:15:56.031Z,31.62
2022-08-12T09:18:30.983Z,31.66
2022-08-12T09:21:01.955Z,31.91
2022-08-12T09:23:58.982Z,31.62
2022-08-12T09:26:19.205Z,31.39
2022-08-12T09:28:53.243Z,31.47
2022-08-12T09:32:03.915Z,31.74
2022-08-12T09:34:29.085Z,31.94
2022-08-12T09:37:18.823Z,32.24
2022-08-12T09:40:06.529Z,31.91
2022-08-12T09:43:15.359Z,32.38
2022-08-12T09:46:06.282Z,32.40
2022-08-12T09:48:34.856Z,32.82
2022-08-12T09:51:10.983Z,32.84
2022-08-12T09:54:06.797Z,33.15
2022-08-12T09:57:00.037Z,32.79
2022-08-12T10:00:12.819Z,32.95
2022-08-12T10:02:44.194Z,32.93
2022-08-12T10:05:00.962Z,33.07
2022-08-12T10:07:40.307Z,33.00
2022-08-12T10:10:22.353Z,33.27
2022-08-12T10:13:34.427Z,32.98
2022-08-12T10:16:05.913Z,33.08
2022-08-12T10:18:35.943Z,33.18
2022-08-12T10:21:16.947Z,33.18
2022-08-12T10:23:51.629Z,33.44
2022-08-12T10:26:44.608Z,33.54
2022-08-12T10:30:02.858Z,33.48
2022-08-12T10:32:43.136Z,33.82
2022-08-12T10:35:10.689Z,33.91
2022-08-12T10:38:34.422Z,33.96
2022-08-12T10:40:32.310Z,33.61
2022-08-12T10:43:19.688Z,34.03
2022-08-12T10:45:51.854Z,34.00
2022-08-12T10:48:33.575Z,33.85
2022-08-12T10:51:51.875Z,33.72
2022-08-12T10:54:00.655Z,33.53
2022-08-12T10:56:35.473Z,33.73
2022-08-12T10:59:10.502Z,33.94
2022-08-12T11:04:19.098Z,33.87
2022-08-12T11:04:44.832Z,33.68
2022-08-12T11:08:36.034Z,33.41
2022-08-12T11:10:05.361Z,33.25
2022-08-12T11:12:56.078Z,33.14
2022-08-12T11:15:33.054Z,33.08
2022-08-12T11:18:11.957Z,33.30
2022-08-12T11:20:45.031Z,33.55
2022-08-12T11:23:36.725Z,33.78
2022-08-12T11:26:04.985Z,33.98
2022-08-12T11:28:36.982Z,34.15
2022-08-12T11:31:14.054Z,34.47
2022-08-12T11:34:06.320Z,34.47
2022-08-12T11:36:30.979Z,34.87
2022-08-12T11:39:04.491Z,34.69
2022-08-12T11:41:36.293Z,34.59
2022-08-12T11:44:20.209Z,34.66
2022-08-12T11:46:55.398Z,34.74
2022-08-12T11:49:31.089Z,34.81
2022-08-12T11:52:02.308Z,34.77
2022-08-12T11:54:39.023Z,34.82
2022-08-12T11:58:17.264Z,34.91
2022-08-12T12:02:54.277Z,35.68
2022-08-12T12:05:22.749Z,35.41
2022-08-12T12:08:37.756Z,35.68
2022-08-12T12:10:45.895Z,35.55
2022-08-12T12:13:23.277Z,35.31
2022-08-12T12:16:00.952Z,35.34
2022-08-12T12:18:34.977Z,35.17
2022-08-12T12:21:48.274Z,35.17
2022-08-12T12:24:14.966Z,35.61
2022-08-12T12:27:00.160Z,35.70
2022-08-12T12:30:19.517Z,36.08
2022-08-12T12:32:29.249Z,36.30
2022-08-12T12:35:14.636Z,36.07
2022-08-12T12:38:04.040Z,36.17
2022-08-12T12:40:39.688Z,36.21
2022-08-12T12:43:08.388Z,36.27
2022-08-12T12:45:44.634Z,36.69
2022-08-12T12:48:20.104Z,36.43
2022-08-12T12:51:14.088Z,36.32
2022-08-12T12:54:07.425Z,36.46
2022-08-12T12:56:41.917Z,36.55
2022-08-12T12:59:54.572Z,36.53
2022-08-12T13:01:59.384Z,36.33
2022-08-12T13:04:34.932Z,36.05
2022-08-12T13:07:02.525Z,35.49
2022-08-12T13:09:36.078Z,35.25
2022-08-12T13:12:12.629Z,35.19
2022-08-12T13:14:40.378Z,35.19
2022-08-12T13:17:14.875Z,35.69
2022-08-12T13:19:46.645Z,35.53
2022-08-12T13:22:20.443Z,35.28
2022-08-12T13:24:52.100Z,35.69
2022-08-12T13:27:35.564Z,35.96
2022-08-12T13:30:10.911Z,36.35
2022-08-12T13:32:57.640Z,36.01
2022-08-12T13:36:03.334Z,35.98
2022-08-12T13:38:14.559Z,35.54
2022-08-12T13:40:55.983Z,35.04
2022-08-12T13:43:41.355Z,34.91
2022-08-12T13:46:14.771Z,34.99
2022-08-12T13:48:45.347Z,34.85
2022-08-12T13:51:14.402Z,34.78
2022-08-12T13:53:58.379Z,34.62
2022-08-12T13:56:29.919Z,34.99
2022-08-12T13:59:09.835Z,35.61
2022-08-12T14:01:40.645Z,35.11
2022-08-12T14:04:12.355Z,35.13
2022-08-12T14:06:41.336Z,35.00
2022-08-12T14:09:17.602Z,35.04
2022-08-12T14:11:58.945Z,35.18
2022-08-12T14:14:31.284Z,35.36
2022-08-12T14:17:05.672Z,35.71
2022-08-12T14:19:48.723Z,36.36
2022-08-12T14:22:20.994Z,36.89
2022-08-12T14:24:53.423Z,37.27
2022-08-12T14:28:03.487Z,36.30
2022-08-12T14:30:15.113Z,36.31
2022-08-12T14:32:46.436Z,36.25
2022-08-12T14:35:14.298Z,35.87
2022-08-12T14:37:58.007Z,35.53
2022-08-12T14:40:31.214Z,35.21
2022-08-12T14:42:59.386Z,35.02
2022-08-12T14:45:44.411Z,34.47
2022-08-12T14:48:16.132Z,34.51
2022-08-12T14:51:02.821Z,34.78
2022-08-12T14:59:57.112Z,34.52
2022-08-12T15:02:20.861Z,34.39
2022-08-12T15:04:59.527Z,34.31
2022-08-12T15:07:33.670Z,34.37
2022-08-12T15:10:31.138Z,34.10
2022-08-12T15:13:07.128Z,33.79
2022-08-12T15:15:43.730Z,33.45
2022-08-12T15:18:20.850Z,33.40
2022-08-12T15:20:50.743Z,33.33
2022-08-12T15:23:21.535Z,33.07
2022-08-12T15:26:02.838Z,33.09
2022-08-12T15:28:35.887Z,33.05
2022-08-12T15:31:21.340Z,32.93
2022-08-12T15:33:52.909Z,33.02
2022-08-12T15:36:40.723Z,33.03
2022-08-12T15:39:16.367Z,32.98
2022-08-12T15:41:49.110Z,32.90
2022-08-12T15:44:38.255Z,32.99
2022-08-12T15:47:36.195Z,33.01
2022-08-12T15:50:18.166Z,33.06
2022-08-12T15:52:51.429Z,32.93
2022-08-12T15:55:24.731Z,32.99
2022-08-12T15:58:01.781Z,32.96
2022-08-12T16:00:38.928Z,32.85
2022-08-12T16:03:14.363Z,32.87
2022-08-12T16:06:13.159Z,32.80
2022-08-12T16:08:36.572Z,32.65
2022-08-12T16:11:14.550Z,32.61
2022-08-12T16:13:44.428Z,32.53
2022-08-12T16:16:22.539Z,32.61
2022-08-12T16:18:56.129Z,32.65
2022-08-12T16:21:51.180Z,32.59
2022-08-12T16:24:12.371Z,32.42
2022-08-12T16:26:41.907Z,32.31
2022-08-12T16:29:15.115Z,32.38
2022-08-12T16:31:45.586Z,32.28
2022-08-12T16:34:25.685Z,32.21
2022-08-12T16:37:08.696Z,32.10
2022-08-12T16:39:59.859Z,31.92
2022-08-12T16:42:28.345Z,32.04
2022-08-12T16:45:01.867Z,32.10
2022-08-12T16:47:58.760Z,31.94
2022-08-12T16:50:30.888Z,31.55
2022-08-12T16:53:03.455Z,31.41
2022-08-12T16:55:42.344Z,31.52
2022-08-12T16:58:28.185Z,31.42
2022-08-12T17:01:01.727Z,31.39
2022-08-12T17:03:32.553Z,31.25
2022-08-12T17:06:06.505Z,31.16
2022-08-12T17:08:34.402Z,31.14
2022-08-12T17:11:02.243Z,31.12
2022-08-12T17:13:35.604Z,31.01
2022-08-12T17:16:20.539Z,31.00
2022-08-12T17:18:57.854Z,30.99
2022-08-12T17:21:41.445Z,30.94
2022-08-12T17:24:21.514Z,30.93
2022-08-12T17:26:54.057Z,30.91
2022-08-12T17:29:32.414Z,30.76
2022-08-12T17:32:11.377Z,30.75
2022-08-12T17:34:57.590Z,30.68
2022-08-12T17:37:24.919Z,30.69
2022-08-12T17:40:06.586Z,30.81
2022-08-12T17:42:47.909Z,30.90
2022-08-12T17:45:19.611Z,30.65
2022-08-12T17:48:04.979Z,30.41
2022-08-12T17:50:39.520Z,30.35
2022-08-12T17:53:10.846Z,30.28
2022-08-12T17:55:47.497Z,30.11
2022-08-12T17:58:35.507Z,30.01
2022-08-12T18:01:06.312Z,29.96
2022-08-12T18:04:04.230Z,29.76
2022-08-12T18:06:36.919Z,29.77
2022-08-12T18:09:08.778Z,29.54
2022-08-12T18:12:04.182Z,29.44
2022-08-12T18:14:38.304Z,29.35
2022-08-12T18:17:10.258Z,29.38
2022-08-12T18:20:05.450Z,29.54
2022-08-12T18:22:55.752Z,29.28
2022-08-12T18:26:14.057Z,29.27
2022-08-12T18:28:37.021Z,29.16
2022-08-12T18:31:06.889Z,29.40
2022-08-12T18:33:44.126Z,29.31
2022-08-12T18:36:14.066Z,29.16
2022-08-12T18:38:44.921Z,28.84
2022-08-12T18:41:36.068Z,28.75
2022-08-12T18:44:09.711Z,28.48
2022-08-12T18:46:53.735Z,28.36
2022-08-12T18:49:28.897Z,28.57
2022-08-12T18:52:04.477Z,28.40
2022-08-12T18:54:41.460Z,28.25
2022-08-12T18:58:06.441Z,28.20
2022-08-12T19:00:36.981Z,28.21
2022-08-12T19:03:09.231Z,28.10
2022-08-12T19:06:00.943Z,28.15
2022-08-12T19:08:31.719Z,27.95
2022-08-12T19:11:19.953Z,27.88
2022-08-12T19:14:11.813Z,27.71
2022-08-12T19:16:43.313Z,27.81
2022-08-12T19:19:11.199Z,27.72
2022-08-12T19:21:45.250Z,27.55
2022-08-12T19:24:42.964Z,27.71
2022-08-12T19:27:15.313Z,27.64
2022-08-12T19:29:44.310Z,27.93
2022-08-12T19:32:32.024Z,27.49
2022-08-12T19:38:03.957Z,27.63
2022-08-12T19:40:38.198Z,27.19
2022-08-12T19:43:13.449Z,26.86
2022-08-12T19:45:53.704Z,26.88
2022-08-12T19:48:23.656Z,26.72
2022-08-12T19:50:57.474Z,26.75
2022-08-12T19:53:27.412Z,26.72
2022-08-12T19:55:57.453Z,26.75
2022-08-12T19:58:26.829Z,26.72
2022-08-12T20:00:55.343Z,26.60
2022-08-12T20:03:40.566Z,26.67
2022-08-12T20:06:21.841Z,26.69
2022-08-12T20:08:56.743Z,26.75
2022-08-12T20:12:13.789Z,26.75
2022-08-12T20:14:21.045Z,26.74
2022-08-12T20:16:58.046Z,26.81
2022-08-12T20:20:01.078Z,26.93
2022-08-12T20:22:29.937Z,26.89
2022-08-12T20:25:01.433Z,27.00
2022-08-12T20:28:04.935Z,26.76
2022-08-12T20:30:52.785Z,26.73
2022-08-12T20:33:17.413Z,26.65
2022-08-12T20:36:13.289Z,26.76
2022-08-12T20:38:39.789Z,26.89
2022-08-12T20:41:16.736Z,26.75
2022-08-12T20:43:52.785Z,26.64
2022-08-12T20:46:21.474Z,26.51
2022-08-12T20:48:54.836Z,26.60
2022-08-12T20:51:27.626Z,26.62
2022-08-12T20:53:58.737Z,26.79
2022-08-12T20:56:34.540Z,26.51
2022-08-12T20:59:19.775Z,26.54
2022-08-12T21:01:49.188Z,26.64
2022-08-12T21:04:39.874Z,26.70
2022-08-12T21:07:14.339Z,26.69
2022-08-12T21:09:47.248Z,26.53
2022-08-12T21:12:30.986Z,26.57
2022-08-12T21:15:24.308Z,26.58
2022-08-12T21:18:11.517Z,26.79
2022-08-12T21:20:55.984Z,26.66
2022-08-12T21:23:23.891Z,26.47
2022-08-12T21:25:56.277Z,26.44
2022-08-12T21:28:30.779Z,26.38
2022-08-12T21:32:34.592Z,26.62
2022-08-12T21:34:07.063Z,26.33
2022-08-12T21:36:48.065Z,26.34
2022-08-12T21:39:21.128Z,26.21
2022-08-12T21:41:52.157Z,26.47
2022-08-12T21:44:24.604Z,26.37
2022-08-12T21:47:21.500Z,26.35
2022-08-12T21:50:02.868Z,26.28
2022-08-12T21:52:36.200Z,26.15
2022-08-12T21:55:18.135Z,26.14
2022-08-12T21:57:54.352Z,26.02
2022-08-12T22:00:35.177Z,26.23
2022-08-12T22:04:03.566Z,25.85
2022-08-12T22:06:26.288Z,25.81
2022-08-12T22:09:02.126Z,25.90
2022-08-12T22:11:42.264Z,25.77
2022-08-12T22:14:21.690Z,25.81
2022-08-12T22:16:52.560Z,25.87
2022-08-12T22:19:20.871Z,25.90
2022-08-12T22:21:55.658Z,26.01
2022-08-12T22:24:27.214Z,25.87
2022-08-12T22:27:18.057Z,25.63
2022-08-12T22:30:05.803Z,25.52
2022-08-12T22:32:34.342Z,25.41
2022-08-12T22:35:22.285Z,25.36
2022-08-12T22:37:53.421Z,25.34
2022-08-12T22:40:23.807Z,25.36
2022-08-12T22:43:15.279Z,25.33
2022-08-12T22:46:02.005Z,25.23
2022-08-12T22:48:30.586Z,25.13
2022-08-12T22:50:59.282Z,25.20
2022-08-12T22:53:35.809Z,25.22
2022-08-12T22:56:10.279Z,25.12
2022-08-12T22:58:41.785Z,25.26
2022-08-12T23:01:11.324Z,25.14
2022-08-12T23:03:50.877Z,25.01
2022-08-12T23:06:23.924Z,24.94
2022-08-12T23:08:52.645Z,24.99
2022-08-12T23:11:23.334Z,25.03
2022-08-12T23:13:54.817Z,25.08
2022-08-12T23:16:31.504Z,24.92
2022-08-12T23:19:23.213Z,24.91
2022-08-12T23:22:04.978Z,25.11
2022-08-12T23:24:55.416Z,24.99
2022-08-12T23:27:51.837Z,24.77
2022-08-12T23:30:32.215Z,24.72
2022-08-12T23:33:19.847Z,24.93
2022-08-12T23:36:03.027Z,24.72
2022-08-12T23:38:32.981Z,24.75
2022-08-12T23:41:03.546Z,24.70
2022-08-12T23:43:40.970Z,24.64
2022-08-12T23:46:19.083Z,24.52
2022-08-12T23:48:48.007Z,24.36
2022-08-12T23:51:22.040Z,24.52
2022-08-12T23:53:55.008Z,24.24
2022-08-12T23:56:23.989Z,24.06
2022-08-12T23:58:57.634Z,24.13
